Time;durP1;ratioP1;P1;durP2;ratioP2;P2;SDS_P1;SDS_P2;PMS_P1;PMS_P2;Temp;Humidity;BMP_temperature;BMP_pressure;BME280_temperature;BME280_humidity;BME280_pressure;Samples;Min_cycle;Max_cycle;Signal;HPM_P1;HPM_P2
2023/07/05 00:01:26;;;;;;;;;;;;;;;;;;5119417;27;1819;-59
2023/07/05 00:03:54;;;;;;;;;;;;;;;;;;5117155;27;1776;-60
2023/07/05 00:06:21;;;;;;;;;;;;;;;;;;5119808;27;1793;-55
2023/07/05 00:08:49;;;;;;;;;;;;;;;;;;5117920;27;2009;-60
2023/07/05 00:11:17;;;;;;;;;;;;;;;;;;5116096;27;1725;-60
2023/07/05 00:13:44;;;;;;;;;;;;;;;;;;5118054;27;1771;-59
2023/07/05 00:16:12;;;;;;;;;;;;;;;;;;5117261;27;1718;-60
2023/07/05 00:18:39;;;;;;;;;;;;;;;;;;5117798;27;1909;-57
2023/07/05 00:21:08;;;;;;;;;;;;;;;;;;5124532;27;1663;-60
2023/07/05 00:23:36;;;;;;;;;;;;;;;;;;5122478;27;1905;-57
2023/07/05 00:26:05;;;;;;;;;;;;;;;;;;5121584;27;1811;-60
2023/07/05 00:28:35;;;;;;;;;;;;;;;;;;5120049;27;1694;-60
2023/07/05 00:31:03;;;;;;;;;;;;;;;;;;5121680;27;2015;-60
2023/07/05 00:33:33;;;;;;;;;;;;;;;;;;5122536;27;1855;-58
2023/07/05 00:36:01;;;;;;;;;;;;;;;;;;5124835;27;1795;-59
2023/07/05 00:38:28;;;;;;;;;;;;;;;;;;5119894;27;1949;-60
2023/07/05 00:40:56;;;;;;;;;;;;;;;;;;5124161;27;1925;-58
2023/07/05 00:43:23;;;;;;;;;;;;;;;;;;5118765;27;1970;-60
2023/07/05 00:45:50;;;;;;;;;;;;;;;;;;5122428;27;1821;-59
2023/07/05 00:48:20;;;;;;;;;;;;;;;;;;5122910;27;1705;-60
2023/07/05 00:50:49;;;;;;;;;;;;;;;;;;5123185;27;1848;-59
2023/07/05 00:53:16;;;;;;;;;;;;;;;;;;5108865;27;1773;-58
2023/07/05 00:55:47;;;;;;;;;;;;;;;;;;5102260;27;1768;-60
2023/07/05 00:58:15;;;;;;;;;;;;;;;;;;5120765;27;1749;-56
2023/07/05 01:00:45;;;;;;;;;;;;;;;;;;5101943;27;1929;-56
2023/07/05 01:03:16;;;;;;;;;;;;;;;;;;5119718;27;1870;-60
2023/07/05 01:05:44;;;;;;;;;;;;;;;;;;5125981;27;2041;-60
2023/07/05 01:08:13;;;;;;;;;;;;;;;;;;5121649;27;1663;-60
2023/07/05 01:10:45;;;;;;;;;;;;;;;;;;5120271;27;1731;-58
2023/07/05 01:13:17;;;;;;;;;;;;;;;;;;5121726;27;1644;-60
2023/07/05 01:15:53;;;;;;;;;;;;;;;;;;5120121;27;1858;-54
2023/07/05 01:18:45;;;;;;;;;;;;;;;;;;5113616;27;1716;-57
2023/07/05 01:21:15;;;;;;;;;;;;;;;;;;5117696;27;1644;-59
2023/07/05 01:24:12;;;;;;;;;;;;;;;;;;5117981;27;1678;-60
2023/07/05 01:26:45;;;;;;;;;;;;;;;;;;5107076;27;1994;-56
2023/07/05 01:29:25;;;;;;;;;;;;;;;;;;5118050;27;1833;-59
2023/07/05 01:32:03;;;;;;;;;;;;;;;;;;5122649;27;1705;-59
2023/07/05 01:34:30;;;;;;;;;;;;;;;;;;5121286;27;1609;-60
2023/07/05 01:36:58;;;;;;;;;;;;;;;;;;5122129;27;2054;-60
2023/07/05 01:39:25;;;;;;;;;;;;;;;;;;5119176;27;1945;-59
2023/07/05 01:41:52;;;;;;;;;;;;;;;;;;5120300;27;1755;-60
2023/07/05 01:44:20;;;;;;;;;;;;;;;;;;5123391;27;1640;-60
2023/07/05 01:47:13;;;;;;;;;;;;;;;;;;5119518;27;1934;-59
2023/07/05 01:49:40;;;;;;;;;;;;;;;;;;5104237;27;1734;-60
2023/07/05 01:52:48;;;;;;;;;;;;;;;;;;5119370;27;1646;-56
2023/07/05 01:55:19;;;;;;;;;;;;;;;;;;5025858;28;1665;-60
2023/07/05 01:57:50;;;;;;;;;;;;;;;;;;5026049;28;1935;-57
2023/07/05 02:00:19;;;;;;;;;;;;;;;;;;5063598;27;2207;-60
2023/07/05 02:02:51;;;;;;;;;;;;;;;;;;5121304;27;1923;-60
2023/07/05 02:05:19;;;;;;;;;;;;;;;;;;5106482;27;1752;-60
2023/07/05 02:07:46;;;;;;;;;;;;;;;;;;5118399;27;1720;-60
2023/07/05 02:10:14;;;;;;;;;;;;;;;;;;5121113;27;1748;-60
2023/07/05 02:12:41;;;;;;;;;;;;;;;;;;5117621;27;1814;-60
2023/07/05 02:15:09;;;;;;;;;;;;;;;;;;5121490;27;2060;-60
2023/07/05 02:17:36;;;;;;;;;;;;;;;;;;5120957;27;1663;-59
2023/07/05 02:20:04;;;;;;;;;;;;;;;;;;5106892;27;1983;-60
2023/07/05 02:22:31;;;;;;;;;;;;;;;;;;5120286;27;1879;-60
2023/07/05 02:24:58;;;;;;;;;;;;;;;;;;5122658;27;1907;-60
2023/07/05 02:27:27;;;;;;;;;;;;;;;;;;5118122;27;2009;-60
2023/07/05 02:29:55;;;;;;;;;;;;;;;;;;5102659;27;1585;-60
2023/07/05 02:32:23;;;;;;;;;;;;;;;;;;5121221;27;1849;-59
2023/07/05 02:34:52;;;;;;;;;;;;;;;;;;5121905;27;1599;-57
2023/07/05 02:37:20;;;;;;;;;;;;;;;;;;5119263;27;1669;-60
2023/07/05 02:39:51;;;;;;;;;;;;;;;;;;5117908;27;1917;-60
2023/07/05 02:42:19;;;;;;;;;;;;;;;;;;5105373;27;1627;-60
2023/07/05 02:44:48;;;;;;;;;;;;;;;;;;5121525;27;1892;-59
2023/07/05 02:47:18;;;;;;;;;;;;;;;;;;5118733;27;1835;-55
2023/07/05 02:49:45;;;;;;;;;;;;;;;;;;5120768;27;1735;-59
2023/07/05 02:52:13;;;;;;;;;;;;;;;;;;5113061;27;1742;-60
2023/07/05 02:54:40;;;;;;;;;;;;;;;;;;5112639;27;1728;-60
2023/07/05 02:57:08;;;;;;;;;;;;;;;;;;5121949;27;1677;-59
2023/07/05 02:59:35;;;;;;;;;;;;;;;;;;5118471;27;1955;-59
2023/07/05 03:02:03;;;;;;;;;;;;;;;;;;5118786;27;2022;-60
2023/07/05 03:04:30;;;;;;;;;;;;;;;;;;5119835;27;1707;-60
2023/07/05 03:06:57;;;;;;;;;;;;;;;;;;5120922;27;1767;-58
2023/07/05 03:09:25;;;;;;;;;;;;;;;;;;5117548;27;2125;-59
2023/07/05 03:11:53;;;;;;;;;;;;;;;;;;5117105;27;2052;-57
2023/07/05 03:14:20;;;;;;;;;;;;;;;;;;5119095;27;1881;-55
2023/07/05 03:16:47;;;;;;;;;;;;;;;;;;5118681;27;1717;-56
2023/07/05 03:19:15;;;;;;;;;;;;;;;;;;5119543;27;1982;-56
2023/07/05 03:21:43;;;;;;;;;;;;;;;;;;5119777;27;1627;-60
2023/07/05 03:24:10;;;;;;;;;;;;;;;;;;5116309;27;1724;-55
2023/07/05 03:26:37;;;;;;;;;;;;;;;;;;5120972;27;2070;-59
2023/07/05 03:29:05;;;;;;;;;;;;;;;;;;5118130;27;1672;-56
2023/07/05 03:31:33;;;;;;;;;;;;;;;;;;5112057;27;1816;-56
2023/07/05 03:34:02;;;;;;;;;;;;;;;;;;5105996;27;1935;-57
2023/07/05 03:36:32;;;;;;;;;;;;;;;;;;5116903;27;1756;-60
2023/07/05 03:38:59;;;;;;;;;;;;;;;;;;5120756;27;1687;-55
2023/07/05 03:41:27;;;;;;;;;;;;;;;;;;5119338;27;2007;-59
2023/07/05 03:43:56;;;;;;;;;;;;;;;;;;5097003;27;1669;-58
2023/07/05 03:46:23;;;;;;;;;;;;;;;;;;5117288;27;1750;-57
2023/07/05 03:48:51;;;;;;;;;;;;;;;;;;5119200;27;1856;-59
2023/07/05 03:51:21;;;;;;;;;;;;;;;;;;5116821;27;1996;-55
2023/07/05 03:53:49;;;;;;;;;;;;;;;;;;5120141;27;1824;-55
2023/07/05 03:56:17;;;;;;;;;;;;;;;;;;5116159;27;1929;-56
2023/07/05 03:58:44;;;;;;;;;;;;;;;;;;5118133;27;1631;-56
2023/07/05 04:01:19;;;;;;;;;;;;;;;;;;5116185;27;1980;-55
2023/07/05 04:03:48;;;;;;;;;;;;;;;;;;5118585;27;1635;-57
2023/07/05 04:06:16;;;;;;;;;;;;;;;;;;5118212;27;1741;-56
2023/07/05 04:08:44;;;;;;;;;;;;;;;;;;5119924;27;1892;-60
2023/07/05 04:11:11;;;;;;;;;;;;;;;;;;5116699;27;1764;-57
2023/07/05 04:13:39;;;;;;;;;;;;;;;;;;5117699;27;2058;-55
2023/07/05 04:16:10;;;;;;;;;;;;;;;;;;5114766;27;1941;-60
2023/07/05 04:18:38;;;;;;;;;;;;;;;;;;5120840;27;2070;-58
2023/07/05 04:21:06;;;;;;;;;;;;;;;;;;5116953;27;1984;-59
2023/07/05 04:23:33;;;;;;;;;;;;;;;;;;5120188;27;1795;-57
2023/07/05 04:26:10;;;;;;;;;;;;;;;;;;5120002;27;1812;-55
2023/07/05 04:28:38;;;;;;;;;;;;;;;;;;5114552;27;1984;-57
2023/07/05 04:31:07;;;;;;;;;;;;;;;;;;5119916;27;2164;-59
2023/07/05 04:33:35;;;;;;;;;;;;;;;;;;5117218;27;1681;-55
2023/07/05 04:36:04;;;;;;;;;;;;;;;;;;5117954;27;1991;-55
2023/07/05 04:38:37;;;;;;;;;;;;;;;;;;5118656;27;1674;-55
2023/07/05 04:41:04;;;;;;;;;;;;;;;;;;5119317;27;1913;-57
2023/07/05 04:43:31;;;;;;;;;;;;;;;;;;5119539;27;1989;-59
2023/07/05 04:46:00;;;;;;;;;;;;;;;;;;5116269;27;1784;-60
2023/07/05 04:48:28;;;;;;;;;;;;;;;;;;5117230;27;1747;-57
2023/07/05 04:50:57;;;;;;;;;;;;;;;;;;5116005;27;1673;-57
2023/07/05 04:53:26;;;;;;;;;;;;;;;;;;5119091;27;1864;-57
2023/07/05 04:55:55;;;;;;;;;;;;;;;;;;5119889;27;1744;-59
2023/07/05 04:58:22;;;;;;;;;;;;;;;;;;5117053;27;1863;-54
2023/07/05 05:00:50;;;;;;;;;;;;;;;;;;5115157;27;1925;-58
2023/07/05 05:03:22;;;;;;;;;;;;;;;;;;5119033;27;1913;-60
2023/07/05 05:05:53;;;;;;;;;;;;;;;;;;5116300;27;1644;-56
2023/07/05 05:08:20;;;;;;;;;;;;;;;;;;5122606;27;1955;-59
2023/07/05 05:10:58;;;;;;;;;;;;;;;;;;5120273;27;1668;-57
2023/07/05 05:13:27;;;;;;;;;;;;;;;;;;5123852;27;1933;-60
2023/07/05 05:15:55;;;;;;;;;;;;;;;;;;5123071;27;1726;-61
2023/07/05 05:18:24;;;;;;;;;;;;;;;;;;5118679;27;1837;-59
2023/07/05 05:20:51;;;;;;;;;;;;;;;;;;5122922;27;1922;-59
2023/07/05 05:23:18;;;;;;;;;;;;;;;;;;5126243;27;1782;-59
2023/07/05 05:25:46;;;;;;;;;;;;;;;;;;5119658;27;2051;-57
2023/07/05 05:28:14;;;;;;;;;;;;;;;;;;5123531;27;1936;-59
2023/07/05 05:30:43;;;;;;;;;;;;;;;;;;5122526;27;1666;-56
2023/07/05 05:33:15;;;;;;;;;;;;;;;;;;5121027;27;2404;-58
2023/07/05 05:35:47;;;;;;;;;;;;;;;;;;5119872;27;1819;-58
2023/07/05 05:38:16;;;;;;;;;;;;;;;;;;5118948;27;1715;-55
2023/07/05 05:40:43;;;;;;;;;;;;;;;;;;5119963;27;1898;-59
2023/07/05 05:43:11;;;;;;;;;;;;;;;;;;5118673;27;2164;-59
2023/07/05 05:45:38;;;;;;;;;;;;;;;;;;5123559;27;1642;-57
2023/07/05 05:48:06;;;;;;;;;;;;;;;;;;5121548;27;1987;-56
2023/07/05 05:50:33;;;;;;;;;;;;;;;;;;5118552;27;1801;-60
2023/07/05 05:53:02;;;;;;;;;;;;;;;;;;5121939;27;1690;-57
2023/07/05 05:55:29;;;;;;;;;;;;;;;;;;5118991;27;1845;-56
2023/07/05 05:57:56;;;;;;;;;;;;;;;;;;5119399;27;1717;-59
2023/07/05 06:00:24;;;;;;;;;;;;;;;;;;5122734;27;1980;-59
2023/07/05 06:02:52;;;;;;;;;;;;;;;;;;5121233;27;1666;-60
2023/07/05 06:05:19;;;;;;;;;;;;;;;;;;5120106;27;1864;-54
2023/07/05 06:07:46;;;;;;;;;;;;;;;;;;5120136;27;1983;-60
2023/07/05 06:10:14;;;;;;;;;;;;;;;;;;5115911;27;1719;-59
2023/07/05 06:12:41;;;;;;;;;;;;;;;;;;5122635;27;1927;-56
2023/07/05 06:15:12;;;;;;;;;;;;;;;;;;5120378;27;1878;-56
2023/07/05 06:17:40;;;;;;;;;;;;;;;;;;5121335;27;2029;-54
2023/07/05 06:20:08;;;;;;;;;;;;;;;;;;5119963;27;1988;-58
2023/07/05 06:22:38;;;;;;;;;;;;;;;;;;5119141;27;1753;-54
2023/07/05 06:25:05;;;;;;;;;;;;;;;;;;5118287;27;1746;-58
2023/07/05 06:27:33;;;;;;;;;;;;;;;;;;5120187;27;1701;-54
2023/07/05 06:30:01;;;;;;;;;;;;;;;;;;5118211;27;1682;-58
2023/07/05 06:32:29;;;;;;;;;;;;;;;;;;5120652;27;1946;-55
2023/07/05 06:34:56;;;;;;;;;;;;;;;;;;5120356;27;1940;-57
2023/07/05 06:37:23;;;;;;;;;;;;;;;;;;5120362;27;1822;-59
2023/07/05 06:39:51;;;;;;;;;;;;;;;;;;5117078;27;1774;-58
2023/07/05 06:42:18;;;;;;;;;;;;;;;;;;5118180;27;1913;-57
2023/07/05 06:44:53;;;;;;;;;;;;;;;;;;5102683;27;1847;-59
2023/07/05 06:47:21;;;;;;;;;;;;;;;;;;5120977;27;1867;-58
2023/07/05 06:49:48;;;;;;;;;;;;;;;;;;5124348;27;1909;-59
2023/07/05 06:52:15;;;;;;;;;;;;;;;;;;5120481;27;2006;-55
2023/07/05 06:54:44;;;;;;;;;;;;;;;;;;5118915;27;1836;-58
2023/07/05 06:57:11;;;;;;;;;;;;;;;;;;5118628;27;1710;-56
2023/07/05 06:59:38;;;;;;;;;;;;;;;;;;5120311;27;1925;-59
2023/07/05 07:02:08;;;;;;;;;;;;;;;;;;5118019;27;1906;-58
2023/07/05 07:04:35;;;;;;;;;;;;;;;;;;5121073;27;1870;-54
2023/07/05 07:07:04;;;;;;;;;;;;;;;;;;5120218;27;1836;-60
2023/07/05 07:09:33;;;;;;;;;;;;;;;;;;5116045;27;1828;-57
2023/07/05 07:12:02;;;;;;;;;;;;;;;;;;5118895;27;1659;-59
2023/07/05 07:14:30;;;;;;;;;;;;;;;;;;5116086;27;1857;-57
2023/07/05 07:16:58;;;;;;;;;;;;;;;;;;5120182;27;1780;-57
2023/07/05 07:19:25;;;;;;;;;;;;;;;;;;5117995;27;1955;-60
2023/07/05 07:21:53;;;;;;;;;;;;;;;;;;5120575;27;1988;-58
2023/07/05 07:24:23;;;;;;;;;;;;;;;;;;5118000;27;1981;-60
2023/07/05 07:26:51;;;;;;;;;;;;;;;;;;5122146;27;1781;-60
2023/07/05 07:29:18;;;;;;;;;;;;;;;;;;5118106;27;1781;-57
2023/07/05 07:31:45;;;;;;;;;;;;;;;;;;5116784;27;1811;-57
2023/07/05 07:34:13;;;;;;;;;;;;;;;;;;5119010;27;1738;-60
2023/07/05 07:36:41;;;;;;;;;;;;;;;;;;5118573;27;1976;-51
2023/07/05 07:39:08;;;;;;;;;;;;;;;;;;5119504;27;2220;-59
2023/07/05 07:41:37;;;;;;;;;;;;;;;;;;5115820;27;1914;-52
2023/07/05 07:44:09;;;;;;;;;;;;;;;;;;5121054;27;1766;-57
2023/07/05 07:46:37;;;;;;;;;;;;;;;;;;5114934;27;1755;-56
2023/07/05 07:49:05;;;;;;;;;;;;;;;;;;5120611;27;1968;-59
2023/07/05 07:51:35;;;;;;;;;;;;;;;;;;5117391;27;1971;-58
2023/07/05 07:54:12;;;;;;;;;;;;;;;;;;5117582;27;2015;-60
2023/07/05 07:56:45;;;;;;;;;;;;;;;;;;5121084;27;1932;-58
2023/07/05 07:59:13;;;;;;;;;;;;;;;;;;5116128;27;1845;-60
2023/07/05 08:01:41;;;;;;;;;;;;;;;;;;5120046;27;1981;-60
2023/07/05 08:04:10;;;;;;;;;;;;;;;;;;5120656;27;1785;-60
2023/07/05 08:06:40;;;;;;;;;;;;;;;;;;5118635;27;1926;-56
2023/07/05 08:09:10;;;;;;;;;;;;;;;;;;5118926;27;1871;-59
2023/07/05 08:11:38;;;;;;;;;;;;;;;;;;5122067;27;1753;-57
2023/07/05 08:14:06;;;;;;;;;;;;;;;;;;5109755;27;1787;-58
2023/07/05 08:16:34;;;;;;;;;;;;;;;;;;5118393;27;1792;-57
2023/07/05 08:19:01;;;;;;;;;;;;;;;;;;5107870;27;1859;-54
2023/07/05 08:21:28;;;;;;;;;;;;;;;;;;5119110;27;1918;-58
2023/07/05 08:23:56;;;;;;;;;;;;;;;;;;5116542;27;1631;-59
2023/07/05 08:26:29;;;;;;;;;;;;;;;;;;5122704;27;2065;-58
2023/07/05 08:28:57;;;;;;;;;;;;;;;;;;5118679;27;1732;-56
2023/07/05 08:31:25;;;;;;;;;;;;;;;;;;5117791;27;1843;-58
2023/07/05 08:33:52;;;;;;;;;;;;;;;;;;5121609;27;1625;-59
2023/07/05 08:36:30;;;;;;;;;;;;;;;;;;5114808;27;1605;-59
2023/07/05 08:38:59;;;;;;;;;;;;;;;;;;5119629;27;2065;-60
2023/07/05 08:41:27;;;;;;;;;;;;;;;;;;5119486;27;1978;-60
2023/07/05 08:44:09;;;;;;;;;;;;;;;;;;5120662;27;1780;-58
2023/07/05 08:46:38;;;;;;;;;;;;;;;;;;5122561;27;1834;-59
2023/07/05 08:49:09;;;;;;;;;;;;;;;;;;5122924;27;1644;-60
2023/07/05 08:51:37;;;;;;;;;;;;;;;;;;5119946;27;1731;-60
2023/07/05 08:54:10;;;;;;;;;;;;;;;;;;5120854;27;1982;-60
2023/07/05 08:56:46;;;;;;;;;;;;;;;;;;5120929;27;2112;-59
2023/07/05 08:59:20;;;;;;;;;;;;;;;;;;5121548;27;1931;-60
2023/07/05 09:01:50;;;;;;;;;;;;;;;;;;5122699;27;2254;-60
2023/07/05 09:04:25;;;;;;;;;;;;;;;;;;5124391;27;1889;-60
2023/07/05 09:06:58;;;;;;;;;;;;;;;;;;5121020;27;2070;-58
2023/07/05 09:09:34;;;;;;;;;;;;;;;;;;5121801;27;2326;-58
2023/07/05 09:12:07;;;;;;;;;;;;;;;;;;5121148;27;1882;-59
2023/07/05 09:14:46;;;;;;;;;;;;;;;;;;5120789;27;1870;-59
2023/07/05 09:17:17;;;;;;;;;;;;;;;;;;5121461;27;2132;-60
2023/07/05 09:20:06;;;;;;;;;;;;;;;;;;5123097;27;1962;-60
2023/07/05 09:22:36;;;;;;;;;;;;;;;;;;5123410;27;1976;-60
2023/07/05 09:25:12;;;;;;;;;;;;;;;;;;5127063;27;1926;-60
2023/07/05 09:27:46;;;;;;;;;;;;;;;;;;5119495;27;2059;-60
2023/07/05 09:30:25;;;;;;;;;;;;;;;;;;5122413;27;1938;-60
2023/07/05 09:33:04;;;;;;;;;;;;;;;;;;5122239;27;2019;-60
2023/07/05 09:35:36;;;;;;;;;;;;;;;;;;5126904;27;1923;-60
2023/07/05 09:38:24;;;;;;;;;;;;;;;;;;5121734;27;2131;-60
2023/07/05 09:40:59;;;;;;;;;;;;;;;;;;5104606;27;2133;-61
2023/07/05 09:43:31;;;;;;;;;;;;;;;;;;5121541;27;2083;-60
2023/07/05 09:46:00;;;;;;;;;;;;;;;;;;5119459;27;2253;-59
2023/07/05 09:48:29;;;;;;;;;;;;;;;;;;5121636;27;1827;-60
2023/07/05 09:51:03;;;;;;;;;;;;;;;;;;5122150;27;2030;-59
2023/07/05 09:53:41;;;;;;;;;;;;;;;;;;5121833;27;2191;-60
2023/07/05 09:56:13;;;;;;;;;;;;;;;;;;5118192;27;1894;-60
2023/07/05 09:58:43;;;;;;;;;;;;;;;;;;5120015;27;2053;-60
2023/07/05 10:01:13;;;;;;;;;;;;;;;;;;5124631;27;1901;-59
2023/07/05 10:03:49;;;;;;;;;;;;;;;;;;5120081;27;1971;-60
2023/07/05 10:06:18;;;;;;;;;;;;;;;;;;5120973;27;1788;-60
2023/07/05 10:08:48;;;;;;;;;;;;;;;;;;5120999;27;2110;-59
2023/07/05 10:11:26;;;;;;;;;;;;;;;;;;5121199;27;1985;-59
2023/07/05 10:14:06;;;;;;;;;;;;;;;;;;5122277;27;1923;-60
2023/07/05 10:16:51;;;;;;;;;;;;;;;;;;5121506;27;1966;-60
2023/07/05 10:19:30;;;;;;;;;;;;;;;;;;5117774;27;2022;-60
2023/07/05 10:22:14;;;;;;;;;;;;;;;;;;5108305;27;1975;-60
2023/07/05 10:24:43;;;;;;;;;;;;;;;;;;5121222;27;2071;-61
2023/07/05 10:27:19;;;;;;;;;;;;;;;;;;5118188;27;1927;-60
2023/07/05 10:29:47;;;;;;;;;;;;;;;;;;5118044;27;2173;-60
2023/07/05 10:32:18;;;;;;;;;;;;;;;;;;5120215;27;1992;-60
2023/07/05 10:34:50;;;;;;;;;;;;;;;;;;5116693;27;2064;-60
2023/07/05 10:37:44;;;;;;;;;;;;;;;;;;5121571;27;1996;-61
2023/07/05 10:40:12;;;;;;;;;;;;;;;;;;5113166;27;2295;-60
2023/07/05 10:42:41;;;;;;;;;;;;;;;;;;5121621;27;2005;-63
2023/07/05 10:45:12;;;;;;;;;;;;;;;;;;5119943;27;2317;-67
2023/07/05 10:47:40;;;;;;;;;;;;;;;;;;5124843;27;1965;-63
2023/07/05 10:50:09;;;;;;;;;;;;;;;;;;5118792;27;1969;-62
2023/07/05 10:52:37;;;;;;;;;;;;;;;;;;5120148;27;2267;-62
2023/07/05 10:55:14;;;;;;;;;;;;;;;;;;5119234;27;1965;-62
2023/07/05 10:57:44;;;;;;;;;;;;;;;;;;5121295;27;2049;-62
2023/07/05 11:00:14;;;;;;;;;;;;;;;;;;5125195;27;1867;-60
2023/07/05 11:03:00;;;;;;;;;;;;;;;;;;5118320;27;1921;-62
2023/07/05 11:05:47;;;;;;;;;;;;;;;;;;5118153;27;1871;-61
2023/07/05 11:08:20;;;;;;;;;;;;;;;;;;5121233;27;2249;-61
2023/07/05 11:10:48;;;;;;;;;;;;;;;;;;5124909;27;1961;-61
2023/07/05 11:13:16;;;;;;;;;;;;;;;;;;5117497;27;2070;-60
2023/07/05 11:15:45;;;;;;;;;;;;;;;;;;5121476;27;2160;-60
2023/07/05 11:18:20;;;;;;;;;;;;;;;;;;5120732;27;1721;-61
2023/07/05 11:20:55;;;;;;;;;;;;;;;;;;5119198;27;1786;-61
2023/07/05 11:23:44;;;;;;;;;;;;;;;;;;5124028;27;2080;-61
2023/07/05 11:26:27;;;;;;;;;;;;;;;;;;5115607;27;2064;-61
2023/07/05 11:28:54;;;;;;;;;;;;;;;;;;5118616;27;1989;-61
2023/07/05 11:31:28;;;;;;;;;;;;;;;;;;5116017;27;2098;-61
2023/07/05 11:34:14;;;;;;;;;;;;;;;;;;5119692;27;2004;-61
2023/07/05 11:36:41;;;;;;;;;;;;;;;;;;5115648;27;1950;-60
2023/07/05 11:39:09;;;;;;;;;;;;;;;;;;5117849;27;1936;-61
2023/07/05 11:41:38;;;;;;;;;;;;;;;;;;5117774;27;2113;-61
2023/07/05 11:44:25;;;;;;;;;;;;;;;;;;5115765;27;2247;-61
2023/07/05 11:46:54;;;;;;;;;;;;;;;;;;5117850;27;1883;-61
2023/07/05 11:49:22;;;;;;;;;;;;;;;;;;5115741;27;2020;-60
2023/07/05 11:51:57;;;;;;;;;;;;;;;;;;5121187;27;1894;-61
2023/07/05 11:54:30;;;;;;;;;;;;;;;;;;5117014;27;2092;-61
2023/07/05 11:57:00;;;;;;;;;;;;;;;;;;5116753;27;1923;-60
2023/07/05 11:59:32;;;;;;;;;;;;;;;;;;5115091;27;1942;-60
2023/07/05 12:02:05;;;;;;;;;;;;;;;;;;5117053;27;1905;-60
2023/07/05 12:04:32;;;;;;;;;;;;;;;;;;5115149;27;2064;-60
2023/07/05 12:07:02;;;;;;;;;;;;;;;;;;5117285;27;1850;-60
2023/07/05 12:09:36;;;;;;;;;;;;;;;;;;5118272;27;1984;-60
2023/07/05 12:12:03;;;;;;;;;;;;;;;;;;5119854;27;2114;-61
2023/07/05 12:14:32;;;;;;;;;;;;;;;;;;5120385;27;1778;-60
2023/07/05 12:17:00;;;;;;;;;;;;;;;;;;5123446;27;1934;-60
2023/07/05 12:19:30;;;;;;;;;;;;;;;;;;5119766;27;1865;-59
2023/07/05 12:21:59;;;;;;;;;;;;;;;;;;5123657;27;2052;-53
2023/07/05 12:24:26;;;;;;;;;;;;;;;;;;5121934;27;2407;-60
2023/07/05 12:26:56;;;;;;;;;;;;;;;;;;5138203;27;2029;-61
2023/07/05 12:29:25;;;;;;;;;;;;;;;;;;5135246;27;2032;-62
2023/07/05 12:32:13;;;;;;;;;;;;;;;;;;5136400;27;2128;-60
2023/07/05 12:34:41;;;;;;;;;;;;;;;;;;5121478;27;1720;-60
2023/07/05 12:37:08;;;;;;;;;;;;;;;;;;5132388;27;2012;-58
2023/07/05 12:39:41;;;;;;;;;;;;;;;;;;5134143;27;1816;-61
2023/07/05 12:42:12;;;;;;;;;;;;;;;;;;5133515;27;1917;-60
2023/07/05 12:44:40;;;;;;;;;;;;;;;;;;5134107;27;2491;-62
2023/07/05 12:47:14;;;;;;;;;;;;;;;;;;5133947;27;1868;-62
2023/07/05 12:49:42;;;;;;;;;;;;;;;;;;5113919;27;1963;-61
2023/07/05 12:52:20;;;;;;;;;;;;;;;;;;5133250;27;2122;-59
2023/07/05 12:54:48;;;;;;;;;;;;;;;;;;5112379;28;2220;-58
2023/07/05 12:57:20;;;;;;;;;;;;;;;;;;5113380;28;2233;-58
2023/07/05 12:59:49;;;;;;;;;;;;;;;;;;5112955;28;2493;-54
2023/07/05 13:02:31;;;;;;;;;;;;;;;;;;5114162;27;2138;-55
2023/07/05 13:05:00;;;;;;;;;;;;;;;;;;5131583;27;2511;-55
2023/07/05 13:07:27;;;;;;;;;;;;;;;;;;5131347;27;2202;-54
2023/07/05 13:10:06;;;;;;;;;;;;;;;;;;5131368;27;2280;-52
2023/07/05 13:12:55;;;;;;;;;;;;;;;;;;5131716;27;2079;-55
2023/07/05 13:15:36;;;;;;;;;;;;;;;;;;5131374;27;2433;-57
2023/07/05 13:18:13;;;;;;;;;;;;;;;;;;5131362;27;2098;-57
2023/07/05 13:20:41;;;;;;;;;;;;;;;;;;5133297;27;2026;-55
2023/07/05 13:23:10;;;;;;;;;;;;;;;;;;5133492;27;2288;-58
2023/07/05 13:25:45;;;;;;;;;;;;;;;;;;5131907;27;2064;-56
2023/07/05 13:28:20;;;;;;;;;;;;;;;;;;5132897;27;1978;-61
2023/07/05 13:30:59;;;;;;;;;;;;;;;;;;5132911;27;2065;-62
2023/07/05 13:33:32;;;;;;;;;;;;;;;;;;5115756;27;1842;-57
2023/07/05 13:36:02;;;;;;;;;;;;;;;;;;5132789;27;2190;-57
2023/07/05 13:38:29;;;;;;;;;;;;;;;;;;5132663;27;2354;-59
2023/07/05 13:41:02;;;;;;;;;;;;;;;;;;5132370;27;2246;-60
2023/07/05 13:43:30;;;;;;;;;;;;;;;;;;5130568;27;2089;-58
2023/07/05 13:46:00;;;;;;;;;;;;;;;;;;5132562;27;2320;-57
2023/07/05 13:48:30;;;;;;;;;;;;;;;;;;5131964;27;1882;-59
2023/07/05 13:50:57;;;;;;;;;;;;;;;;;;5132699;27;2005;-58
2023/07/05 13:53:26;;;;;;;;;;;;;;;;;;5120723;27;1670;-54
2023/07/05 13:55:53;;;;;;;;;;;;;;;;;;5111389;28;2091;-57
2023/07/05 13:58:21;;;;;;;;;;;;;;;;;;5112002;28;2044;-63
2023/07/05 14:00:49;;;;;;;;;;;;;;;;;;5111881;28;2071;-58
2023/07/05 14:03:17;;;;;;;;;;;;;;;;;;5111529;28;1933;-62
2023/07/05 14:05:45;;;;;;;;;;;;;;;;;;5111528;28;2150;-64
2023/07/05 14:08:14;;;;;;;;;;;;;;;;;;5114315;27;1849;-56
2023/07/05 14:10:45;;;;;;;;;;;;;;;;;;5131774;27;2262;-57
2023/07/05 14:13:19;;;;;;;;;;;;;;;;;;5132001;27;2002;-57
2023/07/05 14:15:46;;;;;;;;;;;;;;;;;;5113327;27;2257;-62
2023/07/05 14:18:15;;;;;;;;;;;;;;;;;;5131594;27;1990;-57
2023/07/05 14:20:43;;;;;;;;;;;;;;;;;;5131847;27;2061;-56
2023/07/05 14:23:12;;;;;;;;;;;;;;;;;;5111511;28;2147;-59
2023/07/05 14:25:46;;;;;;;;;;;;;;;;;;5109948;28;2733;-56
2023/07/05 14:28:14;;;;;;;;;;;;;;;;;;5112682;27;2415;-63
2023/07/05 14:30:42;;;;;;;;;;;;;;;;;;5130922;27;1714;-60
2023/07/05 14:33:10;;;;;;;;;;;;;;;;;;5130560;27;1777;-57
2023/07/05 14:35:37;;;;;;;;;;;;;;;;;;5110345;28;2175;-58
2023/07/05 14:38:05;;;;;;;;;;;;;;;;;;5109290;28;2218;-58
2023/07/05 14:40:33;;;;;;;;;;;;;;;;;;5109779;28;2126;-59
2023/07/05 14:43:00;;;;;;;;;;;;;;;;;;5110228;28;1947;-58
2023/07/05 14:45:30;;;;;;;;;;;;;;;;;;5110159;27;2116;-58
2023/07/05 14:47:58;;;;;;;;;;;;;;;;;;5109920;27;1973;-58
2023/07/05 14:50:26;;;;;;;;;;;;;;;;;;5110045;27;2540;-60
2023/07/05 14:52:57;;;;;;;;;;;;;;;;;;5123498;27;2021;-66
2023/07/05 14:55:25;;;;;;;;;;;;;;;;;;5109757;28;1949;-57
2023/07/05 14:57:53;;;;;;;;;;;;;;;;;;5109925;28;2065;-60
2023/07/05 15:00:21;;;;;;;;;;;;;;;;;;5110216;28;2343;-62
2023/07/05 15:03:10;;;;;;;;;;;;;;;;;;5109169;28;2093;-58
2023/07/05 15:05:38;;;;;;;;;;;;;;;;;;5109593;27;1691;-60
2023/07/05 15:08:06;;;;;;;;;;;;;;;;;;5109300;28;1951;-59
2023/07/05 15:10:33;;;;;;;;;;;;;;;;;;5109973;28;1809;-56
2023/07/05 15:13:02;;;;;;;;;;;;;;;;;;5109742;28;2461;-60
2023/07/05 15:15:35;;;;;;;;;;;;;;;;;;5111028;27;1923;-60
2023/07/05 15:18:05;;;;;;;;;;;;;;;;;;5130229;27;1966;-61
2023/07/05 15:20:35;;;;;;;;;;;;;;;;;;5130089;27;1895;-57
2023/07/05 15:23:02;;;;;;;;;;;;;;;;;;5129948;27;1974;-60
2023/07/05 15:25:30;;;;;;;;;;;;;;;;;;5129572;27;1944;-59
2023/07/05 15:27:59;;;;;;;;;;;;;;;;;;5129833;27;2321;-59
2023/07/05 15:30:26;;;;;;;;;;;;;;;;;;5129291;27;1945;-56
2023/07/05 15:32:53;;;;;;;;;;;;;;;;;;5129904;27;2091;-59
2023/07/05 15:35:22;;;;;;;;;;;;;;;;;;5130091;27;1815;-60
2023/07/05 15:37:50;;;;;;;;;;;;;;;;;;5128822;27;2273;-58
2023/07/05 15:40:18;;;;;;;;;;;;;;;;;;5129918;27;1983;-60
2023/07/05 15:42:47;;;;;;;;;;;;;;;;;;5129335;27;1978;-63
2023/07/05 15:45:15;;;;;;;;;;;;;;;;;;5129285;27;1739;-59
2023/07/05 15:47:43;;;;;;;;;;;;;;;;;;5122702;27;2177;-60
2023/07/05 15:50:15;;;;;;;;;;;;;;;;;;5109072;28;2388;-66
2023/07/05 15:52:43;;;;;;;;;;;;;;;;;;5108500;28;2006;-60
2023/07/05 15:55:11;;;;;;;;;;;;;;;;;;5109059;28;1953;-65
2023/07/05 15:57:39;;;;;;;;;;;;;;;;;;5108873;28;2307;-61
2023/07/05 16:00:08;;;;;;;;;;;;;;;;;;5108565;28;1807;-59
2023/07/05 16:02:50;;;;;;;;;;;;;;;;;;5108589;28;2270;-58
2023/07/05 16:05:18;;;;;;;;;;;;;;;;;;5109146;28;2283;-65
2023/07/05 16:07:45;;;;;;;;;;;;;;;;;;5107972;28;1906;-63
2023/07/05 16:10:12;;;;;;;;;;;;;;;;;;5109155;28;2070;-62
2023/07/05 16:12:40;;;;;;;;;;;;;;;;;;5108863;28;2074;-63
2023/07/05 16:15:07;;;;;;;;;;;;;;;;;;5108432;28;2464;-60
2023/07/05 16:17:34;;;;;;;;;;;;;;;;;;5109271;28;1961;-58
2023/07/05 16:20:03;;;;;;;;;;;;;;;;;;5108940;28;2146;-59
2023/07/05 16:22:31;;;;;;;;;;;;;;;;;;5108368;28;2103;-60
2023/07/05 16:24:59;;;;;;;;;;;;;;;;;;5110695;28;1927;-58
2023/07/05 16:27:27;;;;;;;;;;;;;;;;;;5128994;28;2209;-60
2023/07/05 16:29:54;;;;;;;;;;;;;;;;;;5128828;28;2070;-59
2023/07/05 16:32:22;;;;;;;;;;;;;;;;;;5129123;28;2026;-61
2023/07/05 16:34:50;;;;;;;;;;;;;;;;;;5108715;28;2120;-59
2023/07/05 16:37:17;;;;;;;;;;;;;;;;;;5108360;28;2048;-65
2023/07/05 16:39:45;;;;;;;;;;;;;;;;;;5108415;28;1995;-60
2023/07/05 16:42:13;;;;;;;;;;;;;;;;;;5108945;28;2011;-65
2023/07/05 16:44:41;;;;;;;;;;;;;;;;;;5107513;28;2131;-58
2023/07/05 16:47:09;;;;;;;;;;;;;;;;;;5108680;28;2039;-56
2023/07/05 16:49:36;;;;;;;;;;;;;;;;;;5108492;28;1840;-61
2023/07/05 16:52:04;;;;;;;;;;;;;;;;;;5108415;28;1955;-59
2023/07/05 16:54:31;;;;;;;;;;;;;;;;;;5108950;28;2049;-61
2023/07/05 16:57:04;;;;;;;;;;;;;;;;;;5108295;28;2058;-59
2023/07/05 16:59:33;;;;;;;;;;;;;;;;;;5110173;27;2376;-59
2023/07/05 17:02:01;;;;;;;;;;;;;;;;;;5131771;27;1658;-63
2023/07/05 17:04:28;;;;;;;;;;;;;;;;;;5132621;27;2194;-59
2023/07/05 17:06:55;;;;;;;;;;;;;;;;;;5132100;27;1788;-61
2023/07/05 17:09:23;;;;;;;;;;;;;;;;;;5132488;27;2014;-62
2023/07/05 17:11:51;;;;;;;;;;;;;;;;;;5132798;27;2084;-60
2023/07/05 17:14:18;;;;;;;;;;;;;;;;;;5131878;27;2065;-60
2023/07/05 17:16:48;;;;;;;;;;;;;;;;;;5132378;27;2071;-62
2023/07/05 17:19:15;;;;;;;;;;;;;;;;;;5132436;27;1989;-65
2023/07/05 17:21:43;;;;;;;;;;;;;;;;;;5131486;27;2029;-60
2023/07/05 17:24:10;;;;;;;;;;;;;;;;;;5132509;27;2395;-60